sensor_id;sensor_type;location;lat;lon;timestamp;P1;durP1;ratioP1;P2;durP2;ratioP2
43042;SDS011;28667;50.758;6.096;2022-12-29T00:02:13;0.10;;;0.10;;
43042;SDS011;28667;50.758;6.096;2022-12-29T00:04:40;0.10;;;0.10;;
43042;SDS011;28667;50.758;6.096;2022-12-29T00:07:06;0.20;;;0.20;;
43042;SDS011;28667;50.758;6.096;2022-12-29T00:09:33;0.20;;;0.20;;
43042;SDS011;28667;50.758;6.096;2022-12-29T00:12:00;0.00;;;0.00;;
43042;SDS011;28667;50.758;6.096;2022-12-29T00:14:27;0.20;;;0.13;;
43042;SDS011;28667;50.758;6.096;2022-12-29T00:17:12;0.65;;;0.10;;
43042;SDS011;28667;50.758;6.096;2022-12-29T00:19:38;0.57;;;0.13;;
43042;SDS011;28667;50.758;6.096;2022-12-29T00:22:22;0.17;;;0.15;;
43042;SDS011;28667;50.758;6.096;2022-12-29T00:25:07;0.10;;;0.08;;
43042;SDS011;28667;50.758;6.096;2022-12-29T00:27:53;0.10;;;0.10;;
43042;SDS011;28667;50.758;6.096;2022-12-29T00:30:38;0.10;;;0.10;;
43042;SDS011;28667;50.758;6.096;2022-12-29T00:33:25;0.10;;;0.10;;
43042;SDS011;28667;50.758;6.096;2022-12-29T00:36:16;0.00;;;0.00;;
43042;SDS011;28667;50.758;6.096;2022-12-29T00:38:51;0.08;;;0.08;;
43042;SDS011;28667;50.758;6.096;2022-12-29T00:41:38;0.10;;;0.10;;
43042;SDS011;28667;50.758;6.096;2022-12-29T00:44:22;0.17;;;0.15;;
43042;SDS011;28667;50.758;6.096;2022-12-29T00:46:48;0.10;;;0.10;;
43042;SDS011;28667;50.758;6.096;2022-12-29T00:49:14;0.03;;;0.03;;
43042;SDS011;28667;50.758;6.096;2022-12-29T00:51:56;0.10;;;0.10;;
43042;SDS011;28667;50.758;6.096;2022-12-29T00:54:22;0.10;;;0.10;;
43042;SDS011;28667;50.758;6.096;2022-12-29T00:56:48;0.10;;;0.00;;
43042;SDS011;28667;50.758;6.096;2022-12-29T00:59:15;1.10;;;0.20;;
43042;SDS011;28667;50.758;6.096;2022-12-29T01:01:42;0.38;;;0.28;;
43042;SDS011;28667;50.758;6.096;2022-12-29T01:04:08;0.88;;;0.20;;
43042;SDS011;28667;50.758;6.096;2022-12-29T01:06:36;0.35;;;0.20;;
43042;SDS011;28667;50.758;6.096;2022-12-29T01:09:03;0.15;;;0.10;;
43042;SDS011;28667;50.758;6.096;2022-12-29T01:11:48;0.40;;;0.28;;
43042;SDS011;28667;50.758;6.096;2022-12-29T01:14:14;0.45;;;0.30;;
43042;SDS011;28667;50.758;6.096;2022-12-29T01:16:40;0.90;;;0.20;;
43042;SDS011;28667;50.758;6.096;2022-12-29T01:19:06;0.17;;;0.17;;
43042;SDS011;28667;50.758;6.096;2022-12-29T01:21:32;0.10;;;0.10;;
43042;SDS011;28667;50.758;6.096;2022-12-29T01:23:58;0.30;;;0.20;;
43042;SDS011;28667;50.758;6.096;2022-12-29T01:26:24;0.40;;;0.30;;
43042;SDS011;28667;50.758;6.096;2022-12-29T01:28:50;0.35;;;0.20;;
43042;SDS011;28667;50.758;6.096;2022-12-29T01:31:16;1.10;;;0.50;;
43042;SDS011;28667;50.758;6.096;2022-12-29T01:33:42;0.77;;;0.20;;
43042;SDS011;28667;50.758;6.096;2022-12-29T01:36:09;0.28;;;0.22;;
43042;SDS011;28667;50.758;6.096;2022-12-29T01:38:37;0.40;;;0.22;;
43042;SDS011;28667;50.758;6.096;2022-12-29T01:41:04;1.95;;;0.40;;
43042;SDS011;28667;50.758;6.096;2022-12-29T01:48:45;1.00;;;0.30;;
43042;SDS011;28667;50.758;6.096;2022-12-29T01:51:14;0.20;;;0.20;;
43042;SDS011;28667;50.758;6.096;2022-12-29T01:53:40;0.55;;;0.17;;
43042;SDS011;28667;50.758;6.096;2022-12-29T01:56:08;0.57;;;0.25;;
43042;SDS011;28667;50.758;6.096;2022-12-29T01:58:37;1.23;;;0.20;;
43042;SDS011;28667;50.758;6.096;2022-12-29T02:01:06;0.47;;;0.30;;
43042;SDS011;28667;50.758;6.096;2022-12-29T02:03:34;1.42;;;0.60;;
43042;SDS011;28667;50.758;6.096;2022-12-29T02:08:54;0.52;;;0.40;;
43042;SDS011;28667;50.758;6.096;2022-12-29T02:11:21;1.55;;;0.30;;
43042;SDS011;28667;50.758;6.096;2022-12-29T02:13:51;0.50;;;0.50;;
43042;SDS011;28667;50.758;6.096;2022-12-29T02:30:44;0.30;;;0.30;;
43042;SDS011;28667;50.758;6.096;2022-12-29T02:38:54;0.35;;;0.20;;
43042;SDS011;28667;50.758;6.096;2022-12-29T02:44:33;0.17;;;0.17;;
43042;SDS011;28667;50.758;6.096;2022-12-29T02:47:09;0.22;;;0.10;;
43042;SDS011;28667;50.758;6.096;2022-12-29T02:49:48;0.10;;;0.08;;
43042;SDS011;28667;50.758;6.096;2022-12-29T02:52:23;0.35;;;0.10;;
43042;SDS011;28667;50.758;6.096;2022-12-29T02:54:53;0.95;;;0.20;;
43042;SDS011;28667;50.758;6.096;2022-12-29T02:59:46;0.00;;;0.00;;
43042;SDS011;28667;50.758;6.096;2022-12-29T03:05:15;0.55;;;0.20;;
43042;SDS011;28667;50.758;6.096;2022-12-29T03:13:18;0.20;;;0.10;;
43042;SDS011;28667;50.758;6.096;2022-12-29T03:18:51;0.30;;;0.20;;
43042;SDS011;28667;50.758;6.096;2022-12-29T03:22:14;0.20;;;0.20;;
43042;SDS011;28667;50.758;6.096;2022-12-29T03:24:45;0.20;;;0.20;;
43042;SDS011;28667;50.758;6.096;2022-12-29T03:27:19;0.08;;;0.08;;
43042;SDS011;28667;50.758;6.096;2022-12-29T03:29:49;0.20;;;0.20;;
43042;SDS011;28667;50.758;6.096;2022-12-29T03:32:19;0.73;;;0.28;;
43042;SDS011;28667;50.758;6.096;2022-12-29T03:34:47;0.20;;;0.20;;
43042;SDS011;28667;50.758;6.096;2022-12-29T03:37:15;1.05;;;0.30;;
43042;SDS011;28667;50.758;6.096;2022-12-29T03:39:45;0.47;;;0.20;;
43042;SDS011;28667;50.758;6.096;2022-12-29T03:42:13;1.83;;;0.30;;
43042;SDS011;28667;50.758;6.096;2022-12-29T03:44:42;0.20;;;0.20;;
43042;SDS011;28667;50.758;6.096;2022-12-29T03:47:11;0.20;;;0.20;;
43042;SDS011;28667;50.758;6.096;2022-12-29T03:49:38;0.15;;;0.10;;
43042;SDS011;28667;50.758;6.096;2022-12-29T03:52:04;1.05;;;0.30;;
43042;SDS011;28667;50.758;6.096;2022-12-29T03:54:33;1.90;;;0.40;;
43042;SDS011;28667;50.758;6.096;2022-12-29T03:56:59;0.10;;;0.10;;
43042;SDS011;28667;50.758;6.096;2022-12-29T03:59:49;0.30;;;0.17;;
43042;SDS011;28667;50.758;6.096;2022-12-29T04:02:14;0.52;;;0.30;;
43042;SDS011;28667;50.758;6.096;2022-12-29T04:04:41;0.43;;;0.28;;
43042;SDS011;28667;50.758;6.096;2022-12-29T04:07:06;0.38;;;0.32;;
43042;SDS011;28667;50.758;6.096;2022-12-29T04:09:32;0.60;;;0.30;;
43042;SDS011;28667;50.758;6.096;2022-12-29T04:11:58;0.90;;;0.28;;
43042;SDS011;28667;50.758;6.096;2022-12-29T04:14:25;0.05;;;0.03;;
43042;SDS011;28667;50.758;6.096;2022-12-29T04:16:51;0.63;;;0.40;;
43042;SDS011;28667;50.758;6.096;2022-12-29T04:19:17;0.20;;;0.20;;
43042;SDS011;28667;50.758;6.096;2022-12-29T04:21:43;0.13;;;0.13;;
43042;SDS011;28667;50.758;6.096;2022-12-29T04:24:09;0.30;;;0.30;;
43042;SDS011;28667;50.758;6.096;2022-12-29T04:26:39;1.73;;;0.30;;
43042;SDS011;28667;50.758;6.096;2022-12-29T04:29:35;0.32;;;0.10;;
43042;SDS011;28667;50.758;6.096;2022-12-29T04:32:16;0.47;;;0.30;;
43042;SDS011;28667;50.758;6.096;2022-12-29T04:34:46;0.40;;;0.22;;
43042;SDS011;28667;50.758;6.096;2022-12-29T04:37:12;1.55;;;0.32;;
43042;SDS011;28667;50.758;6.096;2022-12-29T04:39:38;1.27;;;0.20;;
43042;SDS011;28667;50.758;6.096;2022-12-29T04:42:07;0.30;;;0.13;;
43042;SDS011;28667;50.758;6.096;2022-12-29T04:44:33;0.93;;;0.20;;
43042;SDS011;28667;50.758;6.096;2022-12-29T04:47:30;4.13;;;0.50;;
43042;SDS011;28667;50.758;6.096;2022-12-29T04:50:04;0.68;;;0.22;;
43042;SDS011;28667;50.758;6.096;2022-12-29T04:52:42;0.00;;;0.00;;
43042;SDS011;28667;50.758;6.096;2022-12-29T04:55:10;0.60;;;0.22;;
43042;SDS011;28667;50.758;6.096;2022-12-29T04:57:36;0.75;;;0.30;;
43042;SDS011;28667;50.758;6.096;2022-12-29T05:00:02;1.88;;;0.25;;
43042;SDS011;28667;50.758;6.096;2022-12-29T05:02:29;0.80;;;0.30;;
43042;SDS011;28667;50.758;6.096;2022-12-29T05:04:55;1.63;;;0.60;;
43042;SDS011;28667;50.758;6.096;2022-12-29T05:07:21;0.10;;;0.10;;
43042;SDS011;28667;50.758;6.096;2022-12-29T05:09:47;0.20;;;0.10;;
43042;SDS011;28667;50.758;6.096;2022-12-29T05:12:14;0.77;;;0.20;;
43042;SDS011;28667;50.758;6.096;2022-12-29T05:14:53;0.43;;;0.20;;
43042;SDS011;28667;50.758;6.096;2022-12-29T05:17:19;0.45;;;0.17;;
43042;SDS011;28667;50.758;6.096;2022-12-29T05:19:45;1.45;;;0.38;;
43042;SDS011;28667;50.758;6.096;2022-12-29T05:22:11;2.90;;;0.20;;
43042;SDS011;28667;50.758;6.096;2022-12-29T05:24:38;0.75;;;0.13;;
43042;SDS011;28667;50.758;6.096;2022-12-29T05:27:04;0.40;;;0.35;;
43042;SDS011;28667;50.758;6.096;2022-12-29T05:29:56;0.17;;;0.10;;
43042;SDS011;28667;50.758;6.096;2022-12-29T05:32:22;0.32;;;0.10;;
43042;SDS011;28667;50.758;6.096;2022-12-29T05:34:47;0.25;;;0.13;;
43042;SDS011;28667;50.758;6.096;2022-12-29T05:37:13;0.38;;;0.20;;
43042;SDS011;28667;50.758;6.096;2022-12-29T05:39:40;0.15;;;0.10;;
43042;SDS011;28667;50.758;6.096;2022-12-29T05:42:07;1.52;;;0.50;;
43042;SDS011;28667;50.758;6.096;2022-12-29T05:44:53;2.75;;;0.17;;
43042;SDS011;28667;50.758;6.096;2022-12-29T05:47:30;1.95;;;0.30;;
43042;SDS011;28667;50.758;6.096;2022-12-29T05:50:07;0.28;;;0.17;;
43042;SDS011;28667;50.758;6.096;2022-12-29T05:53:08;1.35;;;0.32;;
43042;SDS011;28667;50.758;6.096;2022-12-29T05:55:35;1.90;;;0.30;;
43042;SDS011;28667;50.758;6.096;2022-12-29T05:58:02;0.30;;;0.00;;
43042;SDS011;28667;50.758;6.096;2022-12-29T06:00:27;0.40;;;0.38;;
43042;SDS011;28667;50.758;6.096;2022-12-29T06:02:53;0.10;;;0.10;;
43042;SDS011;28667;50.758;6.096;2022-12-29T06:05:19;0.00;;;0.00;;
43042;SDS011;28667;50.758;6.096;2022-12-29T06:07:45;1.05;;;0.22;;
43042;SDS011;28667;50.758;6.096;2022-12-29T06:10:14;0.43;;;0.43;;
43042;SDS011;28667;50.758;6.096;2022-12-29T06:12:53;0.38;;;0.15;;
43042;SDS011;28667;50.758;6.096;2022-12-29T06:15:19;2.17;;;0.30;;
43042;SDS011;28667;50.758;6.096;2022-12-29T06:17:47;0.45;;;0.22;;
43042;SDS011;28667;50.758;6.096;2022-12-29T06:20:13;2.42;;;0.25;;
43042;SDS011;28667;50.758;6.096;2022-12-29T06:22:38;0.10;;;0.10;;
43042;SDS011;28667;50.758;6.096;2022-12-29T06:25:05;0.73;;;0.25;;
43042;SDS011;28667;50.758;6.096;2022-12-29T06:27:32;1.55;;;0.20;;
43042;SDS011;28667;50.758;6.096;2022-12-29T06:29:59;1.30;;;0.30;;
43042;SDS011;28667;50.758;6.096;2022-12-29T06:32:25;1.17;;;0.30;;
43042;SDS011;28667;50.758;6.096;2022-12-29T06:34:54;1.60;;;0.30;;
43042;SDS011;28667;50.758;6.096;2022-12-29T06:37:20;2.90;;;0.70;;
43042;SDS011;28667;50.758;6.096;2022-12-29T06:39:45;0.32;;;0.20;;
43042;SDS011;28667;50.758;6.096;2022-12-29T06:42:13;0.70;;;0.20;;
43042;SDS011;28667;50.758;6.096;2022-12-29T06:44:47;1.17;;;0.20;;
43042;SDS011;28667;50.758;6.096;2022-12-29T06:47:13;0.52;;;0.30;;
43042;SDS011;28667;50.758;6.096;2022-12-29T06:49:39;0.30;;;0.30;;
43042;SDS011;28667;50.758;6.096;2022-12-29T06:52:04;0.52;;;0.25;;
43042;SDS011;28667;50.758;6.096;2022-12-29T06:54:30;2.67;;;0.28;;
43042;SDS011;28667;50.758;6.096;2022-12-29T06:56:56;2.67;;;0.20;;
43042;SDS011;28667;50.758;6.096;2022-12-29T06:59:23;1.10;;;0.30;;
43042;SDS011;28667;50.758;6.096;2022-12-29T07:01:49;0.68;;;0.10;;
43042;SDS011;28667;50.758;6.096;2022-12-29T07:04:15;0.60;;;0.20;;
43042;SDS011;28667;50.758;6.096;2022-12-29T07:06:41;0.47;;;0.30;;
43042;SDS011;28667;50.758;6.096;2022-12-29T07:09:07;1.00;;;0.30;;
43042;SDS011;28667;50.758;6.096;2022-12-29T07:11:33;0.00;;;0.00;;
43042;SDS011;28667;50.758;6.096;2022-12-29T07:14:00;0.38;;;0.10;;
43042;SDS011;28667;50.758;6.096;2022-12-29T07:16:26;1.17;;;0.20;;
43042;SDS011;28667;50.758;6.096;2022-12-29T07:18:54;2.67;;;0.30;;
43042;SDS011;28667;50.758;6.096;2022-12-29T07:21:20;1.65;;;0.68;;
43042;SDS011;28667;50.758;6.096;2022-12-29T07:23:46;1.75;;;0.20;;
43042;SDS011;28667;50.758;6.096;2022-12-29T07:26:12;1.80;;;0.25;;
43042;SDS011;28667;50.758;6.096;2022-12-29T07:28:39;2.90;;;0.35;;
43042;SDS011;28667;50.758;6.096;2022-12-29T07:31:07;3.95;;;0.30;;
43042;SDS011;28667;50.758;6.096;2022-12-29T07:33:44;1.17;;;0.50;;
43042;SDS011;28667;50.758;6.096;2022-12-29T07:36:10;4.45;;;0.47;;
43042;SDS011;28667;50.758;6.096;2022-12-29T07:38:36;2.03;;;0.50;;
43042;SDS011;28667;50.758;6.096;2022-12-29T07:41:02;0.25;;;0.25;;
43042;SDS011;28667;50.758;6.096;2022-12-29T07:43:28;0.82;;;0.15;;
43042;SDS011;28667;50.758;6.096;2022-12-29T07:46:17;2.80;;;0.30;;
43042;SDS011;28667;50.758;6.096;2022-12-29T07:48:42;0.50;;;0.30;;
43042;SDS011;28667;50.758;6.096;2022-12-29T07:51:08;2.22;;;0.50;;
43042;SDS011;28667;50.758;6.096;2022-12-29T07:53:34;1.20;;;0.47;;
43042;SDS011;28667;50.758;6.096;2022-12-29T07:56:00;0.77;;;0.45;;
43042;SDS011;28667;50.758;6.096;2022-12-29T07:58:26;0.65;;;0.30;;
43042;SDS011;28667;50.758;6.096;2022-12-29T08:00:55;0.25;;;0.10;;
43042;SDS011;28667;50.758;6.096;2022-12-29T08:03:21;1.63;;;0.20;;
43042;SDS011;28667;50.758;6.096;2022-12-29T08:05:47;2.33;;;0.40;;
43042;SDS011;28667;50.758;6.096;2022-12-29T08:08:13;0.43;;;0.20;;
43042;SDS011;28667;50.758;6.096;2022-12-29T08:10:39;0.40;;;0.30;;
43042;SDS011;28667;50.758;6.096;2022-12-29T08:13:04;2.28;;;0.65;;
43042;SDS011;28667;50.758;6.096;2022-12-29T08:15:30;0.65;;;0.30;;
43042;SDS011;28667;50.758;6.096;2022-12-29T08:17:56;4.10;;;0.45;;
43042;SDS011;28667;50.758;6.096;2022-12-29T08:20:21;2.78;;;0.90;;
43042;SDS011;28667;50.758;6.096;2022-12-29T08:22:47;1.05;;;0.28;;
43042;SDS011;28667;50.758;6.096;2022-12-29T08:25:13;0.95;;;0.20;;
43042;SDS011;28667;50.758;6.096;2022-12-29T08:27:39;0.52;;;0.35;;
43042;SDS011;28667;50.758;6.096;2022-12-29T08:30:04;1.17;;;0.40;;
43042;SDS011;28667;50.758;6.096;2022-12-29T08:32:31;1.40;;;0.70;;
43042;SDS011;28667;50.758;6.096;2022-12-29T08:34:57;0.88;;;0.20;;
43042;SDS011;28667;50.758;6.096;2022-12-29T08:37:22;6.40;;;0.40;;
43042;SDS011;28667;50.758;6.096;2022-12-29T08:39:48;1.27;;;0.57;;
43042;SDS011;28667;50.758;6.096;2022-12-29T08:42:15;1.10;;;0.43;;
43042;SDS011;28667;50.758;6.096;2022-12-29T08:44:41;5.00;;;0.32;;
43042;SDS011;28667;50.758;6.096;2022-12-29T08:47:06;2.15;;;0.30;;
43042;SDS011;28667;50.758;6.096;2022-12-29T08:49:34;2.15;;;0.52;;
43042;SDS011;28667;50.758;6.096;2022-12-29T08:52:00;0.47;;;0.20;;
43042;SDS011;28667;50.758;6.096;2022-12-29T08:54:25;1.85;;;0.70;;
43042;SDS011;28667;50.758;6.096;2022-12-29T08:56:51;3.38;;;0.52;;
43042;SDS011;28667;50.758;6.096;2022-12-29T08:59:19;4.18;;;1.27;;
43042;SDS011;28667;50.758;6.096;2022-12-29T09:01:46;5.88;;;0.38;;
43042;SDS011;28667;50.758;6.096;2022-12-29T09:04:12;6.90;;;1.02;;
43042;SDS011;28667;50.758;6.096;2022-12-29T09:06:38;2.92;;;0.30;;
43042;SDS011;28667;50.758;6.096;2022-12-29T09:09:03;2.33;;;0.95;;
43042;SDS011;28667;50.758;6.096;2022-12-29T09:11:29;0.85;;;0.43;;
43042;SDS011;28667;50.758;6.096;2022-12-29T09:13:55;4.70;;;1.13;;
43042;SDS011;28667;50.758;6.096;2022-12-29T09:16:21;2.55;;;0.55;;
43042;SDS011;28667;50.758;6.096;2022-12-29T09:18:48;1.63;;;0.30;;
43042;SDS011;28667;50.758;6.096;2022-12-29T09:21:14;0.30;;;0.30;;
43042;SDS011;28667;50.758;6.096;2022-12-29T09:23:40;4.50;;;0.25;;
43042;SDS011;28667;50.758;6.096;2022-12-29T09:26:06;4.22;;;0.60;;
43042;SDS011;28667;50.758;6.096;2022-12-29T09:28:33;2.53;;;0.68;;
43042;SDS011;28667;50.758;6.096;2022-12-29T09:30:59;4.32;;;0.63;;
43042;SDS011;28667;50.758;6.096;2022-12-29T09:33:25;1.63;;;0.25;;
43042;SDS011;28667;50.758;6.096;2022-12-29T09:35:52;0.60;;;0.40;;
43042;SDS011;28667;50.758;6.096;2022-12-29T09:38:20;3.03;;;0.25;;
43042;SDS011;28667;50.758;6.096;2022-12-29T09:40:49;3.45;;;0.52;;
43042;SDS011;28667;50.758;6.096;2022-12-29T09:51:28;6.97;;;0.95;;
43042;SDS011;28667;50.758;6.096;2022-12-29T09:53:57;1.55;;;0.50;;
43042;SDS011;28667;50.758;6.096;2022-12-29T09:56:27;3.92;;;1.25;;
43042;SDS011;28667;50.758;6.096;2022-12-29T09:58:58;6.47;;;0.90;;
43042;SDS011;28667;50.758;6.096;2022-12-29T10:04:42;2.33;;;0.60;;
43042;SDS011;28667;50.758;6.096;2022-12-29T10:10:16;3.58;;;0.40;;
43042;SDS011;28667;50.758;6.096;2022-12-29T10:15:58;2.92;;;0.50;;
43042;SDS011;28667;50.758;6.096;2022-12-29T10:23:54;2.80;;;0.35;;
43042;SDS011;28667;50.758;6.096;2022-12-29T10:26:23;3.95;;;0.47;;
43042;SDS011;28667;50.758;6.096;2022-12-29T10:28:53;2.08;;;0.40;;
43042;SDS011;28667;50.758;6.096;2022-12-29T10:34:24;2.50;;;0.50;;
43042;SDS011;28667;50.758;6.096;2022-12-29T10:37:00;4.28;;;0.60;;
43042;SDS011;28667;50.758;6.096;2022-12-29T10:39:38;2.03;;;0.50;;
43042;SDS011;28667;50.758;6.096;2022-12-29T10:42:31;3.85;;;0.43;;
43042;SDS011;28667;50.758;6.096;2022-12-29T10:45:02;6.75;;;1.52;;
43042;SDS011;28667;50.758;6.096;2022-12-29T10:47:33;3.28;;;1.17;;
43042;SDS011;28667;50.758;6.096;2022-12-29T10:50:03;3.70;;;0.63;;
43042;SDS011;28667;50.758;6.096;2022-12-29T10:52:30;2.63;;;0.80;;
43042;SDS011;28667;50.758;6.096;2022-12-29T10:54:59;1.67;;;0.20;;
43042;SDS011;28667;50.758;6.096;2022-12-29T10:57:33;1.50;;;0.35;;
43042;SDS011;28667;50.758;6.096;2022-12-29T11:07:51;4.47;;;0.65;;
43042;SDS011;28667;50.758;6.096;2022-12-29T11:10:29;2.67;;;0.55;;
43042;SDS011;28667;50.758;6.096;2022-12-29T11:13:02;2.47;;;0.40;;
43042;SDS011;28667;50.758;6.096;2022-12-29T11:15:42;1.10;;;0.17;;
43042;SDS011;28667;50.758;6.096;2022-12-29T11:18:17;3.60;;;0.40;;
43042;SDS011;28667;50.758;6.096;2022-12-29T11:20:55;0.73;;;0.30;;
43042;SDS011;28667;50.758;6.096;2022-12-29T11:23:26;3.92;;;0.70;;
43042;SDS011;28667;50.758;6.096;2022-12-29T11:26:06;4.80;;;0.40;;
43042;SDS011;28667;50.758;6.096;2022-12-29T11:28:38;7.45;;;0.80;;
43042;SDS011;28667;50.758;6.096;2022-12-29T11:31:07;6.03;;;0.43;;
43042;SDS011;28667;50.758;6.096;2022-12-29T11:33:35;3.08;;;0.98;;
43042;SDS011;28667;50.758;6.096;2022-12-29T11:36:06;2.70;;;0.68;;
43042;SDS011;28667;50.758;6.096;2022-12-29T11:38:47;2.58;;;0.50;;
43042;SDS011;28667;50.758;6.096;2022-12-29T11:41:25;2.88;;;0.63;;
43042;SDS011;28667;50.758;6.096;2022-12-29T11:43:53;2.55;;;0.73;;
43042;SDS011;28667;50.758;6.096;2022-12-29T11:46:28;1.80;;;0.57;;
43042;SDS011;28667;50.758;6.096;2022-12-29T11:48:56;3.95;;;1.58;;
43042;SDS011;28667;50.758;6.096;2022-12-29T11:51:47;3.35;;;0.85;;
43042;SDS011;28667;50.758;6.096;2022-12-29T11:54:15;0.52;;;0.40;;
43042;SDS011;28667;50.758;6.096;2022-12-29T11:56:52;5.80;;;0.63;;
43042;SDS011;28667;50.758;6.096;2022-12-29T12:02:03;1.58;;;0.63;;
43042;SDS011;28667;50.758;6.096;2022-12-29T12:04:42;3.67;;;0.50;;
43042;SDS011;28667;50.758;6.096;2022-12-29T12:09:47;3.40;;;0.80;;
43042;SDS011;28667;50.758;6.096;2022-12-29T12:15:03;4.00;;;0.43;;
43042;SDS011;28667;50.758;6.096;2022-12-29T12:17:51;2.95;;;0.30;;
43042;SDS011;28667;50.758;6.096;2022-12-29T12:20:19;4.97;;;0.43;;
43042;SDS011;28667;50.758;6.096;2022-12-29T12:23:07;5.30;;;0.65;;
43042;SDS011;28667;50.758;6.096;2022-12-29T12:25:51;2.17;;;0.40;;
43042;SDS011;28667;50.758;6.096;2022-12-29T12:28:33;4.95;;;1.10;;
43042;SDS011;28667;50.758;6.096;2022-12-29T12:31:06;2.28;;;0.40;;
43042;SDS011;28667;50.758;6.096;2022-12-29T12:33:43;6.70;;;1.13;;
43042;SDS011;28667;50.758;6.096;2022-12-29T12:44:01;4.13;;;0.70;;
43042;SDS011;28667;50.758;6.096;2022-12-29T12:46:50;3.47;;;0.57;;
43042;SDS011;28667;50.758;6.096;2022-12-29T12:57:53;2.13;;;1.05;;
43042;SDS011;28667;50.758;6.096;2022-12-29T13:00:20;2.65;;;0.65;;
43042;SDS011;28667;50.758;6.096;2022-12-29T13:11:30;0.65;;;0.38;;
43042;SDS011;28667;50.758;6.096;2022-12-29T13:19:26;2.30;;;0.75;;
43042;SDS011;28667;50.758;6.096;2022-12-29T13:41:01;3.30;;;0.60;;
43042;SDS011;28667;50.758;6.096;2022-12-29T13:44:04;0.68;;;0.40;;
43042;SDS011;28667;50.758;6.096;2022-12-29T13:46:36;1.10;;;0.28;;
43042;SDS011;28667;50.758;6.096;2022-12-29T13:49:06;2.08;;;0.40;;
43042;SDS011;28667;50.758;6.096;2022-12-29T13:51:41;1.98;;;0.43;;
43042;SDS011;28667;50.758;6.096;2022-12-29T13:54:15;2.33;;;0.55;;
43042;SDS011;28667;50.758;6.096;2022-12-29T14:01:54;2.20;;;0.47;;
43042;SDS011;28667;50.758;6.096;2022-12-29T14:04:29;1.65;;;0.20;;
43042;SDS011;28667;50.758;6.096;2022-12-29T14:07:05;2.55;;;0.30;;
43042;SDS011;28667;50.758;6.096;2022-12-29T14:09:47;1.38;;;0.43;;
43042;SDS011;28667;50.758;6.096;2022-12-29T14:12:21;2.35;;;0.32;;
43042;SDS011;28667;50.758;6.096;2022-12-29T14:15:05;1.50;;;0.40;;
43042;SDS011;28667;50.758;6.096;2022-12-29T14:17:59;0.90;;;0.30;;
43042;SDS011;28667;50.758;6.096;2022-12-29T14:20:28;2.63;;;0.43;;
43042;SDS011;28667;50.758;6.096;2022-12-29T14:28:27;4.47;;;0.80;;
43042;SDS011;28667;50.758;6.096;2022-12-29T14:31:00;7.97;;;0.60;;
43042;SDS011;28667;50.758;6.096;2022-12-29T14:33:32;3.28;;;0.70;;
43042;SDS011;28667;50.758;6.096;2022-12-29T14:38:45;1.63;;;0.55;;
43042;SDS011;28667;50.758;6.096;2022-12-29T14:41:23;6.55;;;0.50;;
43042;SDS011;28667;50.758;6.096;2022-12-29T14:43:53;9.25;;;0.55;;
43042;SDS011;28667;50.758;6.096;2022-12-29T14:46:47;2.97;;;0.43;;
43042;SDS011;28667;50.758;6.096;2022-12-29T14:51:53;1.95;;;0.50;;
43042;SDS011;28667;50.758;6.096;2022-12-29T14:57:04;4.80;;;0.50;;
43042;SDS011;28667;50.758;6.096;2022-12-29T14:59:33;3.42;;;0.43;;
43042;SDS011;28667;50.758;6.096;2022-12-29T15:02:01;3.70;;;0.50;;
43042;SDS011;28667;50.758;6.096;2022-12-29T15:04:37;2.15;;;0.57;;
43042;SDS011;28667;50.758;6.096;2022-12-29T15:07:07;6.57;;;0.75;;
43042;SDS011;28667;50.758;6.096;2022-12-29T15:09:45;2.80;;;0.82;;
43042;SDS011;28667;50.758;6.096;2022-12-29T15:15:21;1.95;;;0.60;;
43042;SDS011;28667;50.758;6.096;2022-12-29T15:17:51;2.85;;;0.65;;
43042;SDS011;28667;50.758;6.096;2022-12-29T15:20:24;3.35;;;0.65;;
43042;SDS011;28667;50.758;6.096;2022-12-29T15:22:56;2.95;;;0.50;;
43042;SDS011;28667;50.758;6.096;2022-12-29T15:25:34;3.33;;;0.52;;
43042;SDS011;28667;50.758;6.096;2022-12-29T15:28:02;6.93;;;0.68;;
43042;SDS011;28667;50.758;6.096;2022-12-29T15:30:30;1.95;;;0.60;;
43042;SDS011;28667;50.758;6.096;2022-12-29T15:32:56;0.55;;;0.50;;
43042;SDS011;28667;50.758;6.096;2022-12-29T15:35:27;2.38;;;0.47;;
43042;SDS011;28667;50.758;6.096;2022-12-29T15:37:53;2.25;;;0.40;;
43042;SDS011;28667;50.758;6.096;2022-12-29T15:40:23;7.20;;;0.50;;
43042;SDS011;28667;50.758;6.096;2022-12-29T15:43:00;3.65;;;0.40;;
43042;SDS011;28667;50.758;6.096;2022-12-29T15:45:32;2.35;;;0.50;;
43042;SDS011;28667;50.758;6.096;2022-12-29T15:48:00;4.88;;;0.40;;
43042;SDS011;28667;50.758;6.096;2022-12-29T15:50:31;4.03;;;0.60;;
43042;SDS011;28667;50.758;6.096;2022-12-29T15:52:58;3.60;;;0.60;;
43042;SDS011;28667;50.758;6.096;2022-12-29T15:57:59;4.68;;;1.23;;
43042;SDS011;28667;50.758;6.096;2022-12-29T16:00:28;7.07;;;0.77;;
43042;SDS011;28667;50.758;6.096;2022-12-29T16:02:59;3.10;;;0.80;;
43042;SDS011;28667;50.758;6.096;2022-12-29T16:05:36;3.95;;;0.90;;
43042;SDS011;28667;50.758;6.096;2022-12-29T16:08:15;2.05;;;0.50;;
43042;SDS011;28667;50.758;6.096;2022-12-29T16:10:57;4.65;;;0.60;;
43042;SDS011;28667;50.758;6.096;2022-12-29T16:13:26;1.15;;;0.80;;
43042;SDS011;28667;50.758;6.096;2022-12-29T16:16:24;8.30;;;1.17;;
43042;SDS011;28667;50.758;6.096;2022-12-29T16:18:56;12.52;;;1.27;;
43042;SDS011;28667;50.758;6.096;2022-12-29T16:21:24;1.92;;;0.90;;
43042;SDS011;28667;50.758;6.096;2022-12-29T16:23:53;4.47;;;0.95;;
43042;SDS011;28667;50.758;6.096;2022-12-29T16:26:21;2.88;;;0.90;;
43042;SDS011;28667;50.758;6.096;2022-12-29T16:28:59;3.13;;;1.00;;
43042;SDS011;28667;50.758;6.096;2022-12-29T16:31:38;1.73;;;0.68;;
43042;SDS011;28667;50.758;6.096;2022-12-29T16:36:58;4.72;;;0.77;;
43042;SDS011;28667;50.758;6.096;2022-12-29T16:39:27;5.97;;;0.68;;
43042;SDS011;28667;50.758;6.096;2022-12-29T16:41:53;7.88;;;1.50;;
43042;SDS011;28667;50.758;6.096;2022-12-29T16:44:21;1.73;;;0.77;;
43042;SDS011;28667;50.758;6.096;2022-12-29T16:49:34;8.48;;;1.33;;
43042;SDS011;28667;50.758;6.096;2022-12-29T16:52:10;3.72;;;0.73;;
43042;SDS011;28667;50.758;6.096;2022-12-29T16:54:38;3.75;;;1.38;;
43042;SDS011;28667;50.758;6.096;2022-12-29T16:57:05;3.55;;;1.05;;
43042;SDS011;28667;50.758;6.096;2022-12-29T16:59:34;12.88;;;1.10;;
43042;SDS011;28667;50.758;6.096;2022-12-29T17:02:07;4.30;;;1.08;;
43042;SDS011;28667;50.758;6.096;2022-12-29T17:04:41;2.95;;;1.17;;
43042;SDS011;28667;50.758;6.096;2022-12-29T17:07:15;7.90;;;1.27;;
43042;SDS011;28667;50.758;6.096;2022-12-29T17:09:45;3.22;;;0.88;;
43042;SDS011;28667;50.758;6.096;2022-12-29T17:12:15;7.22;;;1.13;;
43042;SDS011;28667;50.758;6.096;2022-12-29T17:14:45;5.13;;;0.98;;
43042;SDS011;28667;50.758;6.096;2022-12-29T17:17:17;4.47;;;1.30;;
43042;SDS011;28667;50.758;6.096;2022-12-29T17:19:51;2.22;;;0.80;;
43042;SDS011;28667;50.758;6.096;2022-12-29T17:22:21;7.18;;;1.30;;
43042;SDS011;28667;50.758;6.096;2022-12-29T17:24:52;5.78;;;0.85;;
43042;SDS011;28667;50.758;6.096;2022-12-29T17:27:20;3.42;;;0.93;;
43042;SDS011;28667;50.758;6.096;2022-12-29T17:29:49;2.55;;;0.90;;
43042;SDS011;28667;50.758;6.096;2022-12-29T17:32:16;6.97;;;1.60;;
43042;SDS011;28667;50.758;6.096;2022-12-29T17:34:42;5.20;;;0.90;;
43042;SDS011;28667;50.758;6.096;2022-12-29T17:39:45;11.50;;;1.17;;
43042;SDS011;28667;50.758;6.096;2022-12-29T17:42:11;4.75;;;1.85;;
43042;SDS011;28667;50.758;6.096;2022-12-29T17:44:37;3.60;;;0.68;;
43042;SDS011;28667;50.758;6.096;2022-12-29T17:47:03;8.00;;;1.45;;
43042;SDS011;28667;50.758;6.096;2022-12-29T17:49:28;8.82;;;1.20;;
43042;SDS011;28667;50.758;6.096;2022-12-29T17:51:54;8.00;;;1.30;;
43042;SDS011;28667;50.758;6.096;2022-12-29T17:54:22;9.88;;;0.90;;
43042;SDS011;28667;50.758;6.096;2022-12-29T17:56:49;10.13;;;1.48;;
43042;SDS011;28667;50.758;6.096;2022-12-29T17:59:15;6.82;;;0.98;;